sensor_id;sensor_type;location;lat;lon;timestamp;P1;durP1;ratioP1;P2;durP2;ratioP2
73515;SDS011;61763;51.416;5.442;2023-05-07T00:00:16;11.32;;;8.00;;
73515;SDS011;61763;51.416;5.442;2023-05-07T00:02:43;10.05;;;6.72;;
73515;SDS011;61763;51.416;5.442;2023-05-07T00:07:36;9.00;;;5.57;;
73515;SDS011;61763;51.416;5.442;2023-05-07T00:10:02;10.75;;;6.57;;
73515;SDS011;61763;51.416;5.442;2023-05-07T00:12:29;11.63;;;7.35;;
73515;SDS011;61763;51.416;5.442;2023-05-07T00:14:56;9.50;;;6.28;;
73515;SDS011;61763;51.416;5.442;2023-05-07T00:17:22;11.70;;;6.90;;
73515;SDS011;61763;51.416;5.442;2023-05-07T00:19:48;11.27;;;7.28;;
73515;SDS011;61763;51.416;5.442;2023-05-07T00:22:13;10.75;;;6.38;;
73515;SDS011;61763;51.416;5.442;2023-05-07T00:24:38;12.13;;;7.40;;
73515;SDS011;61763;51.416;5.442;2023-05-07T00:27:04;10.40;;;7.18;;
73515;SDS011;61763;51.416;5.442;2023-05-07T00:29:30;11.73;;;7.75;;
73515;SDS011;61763;51.416;5.442;2023-05-07T00:31:55;14.73;;;11.00;;
73515;SDS011;61763;51.416;5.442;2023-05-07T00:34:20;14.18;;;8.93;;
73515;SDS011;61763;51.416;5.442;2023-05-07T00:36:46;13.38;;;9.60;;
73515;SDS011;61763;51.416;5.442;2023-05-07T00:39:11;15.10;;;10.43;;
73515;SDS011;61763;51.416;5.442;2023-05-07T00:41:36;13.45;;;8.98;;
73515;SDS011;61763;51.416;5.442;2023-05-07T00:44:02;13.90;;;8.52;;
73515;SDS011;61763;51.416;5.442;2023-05-07T00:46:27;13.25;;;9.07;;
73515;SDS011;61763;51.416;5.442;2023-05-07T00:48:55;14.57;;;9.70;;
73515;SDS011;61763;51.416;5.442;2023-05-07T00:51:21;17.25;;;10.50;;
73515;SDS011;61763;51.416;5.442;2023-05-07T00:53:47;15.50;;;9.85;;
73515;SDS011;61763;51.416;5.442;2023-05-07T00:56:13;18.38;;;12.80;;
73515;SDS011;61763;51.416;5.442;2023-05-07T00:58:38;17.23;;;12.45;;
73515;SDS011;61763;51.416;5.442;2023-05-07T01:01:05;17.08;;;12.57;;
73515;SDS011;61763;51.416;5.442;2023-05-07T01:03:31;17.23;;;11.00;;
73515;SDS011;61763;51.416;5.442;2023-05-07T01:05:57;17.52;;;11.18;;
73515;SDS011;61763;51.416;5.442;2023-05-07T01:08:24;17.05;;;10.88;;
73515;SDS011;61763;51.416;5.442;2023-05-07T01:10:51;20.38;;;13.48;;
73515;SDS011;61763;51.416;5.442;2023-05-07T01:13:18;19.48;;;11.45;;
73515;SDS011;61763;51.416;5.442;2023-05-07T01:15:44;20.38;;;13.45;;
73515;SDS011;61763;51.416;5.442;2023-05-07T01:18:10;16.70;;;11.98;;
73515;SDS011;61763;51.416;5.442;2023-05-07T01:20:35;20.33;;;13.85;;
73515;SDS011;61763;51.416;5.442;2023-05-07T01:23:01;21.50;;;13.60;;
73515;SDS011;61763;51.416;5.442;2023-05-07T01:25:28;18.27;;;11.20;;
73515;SDS011;61763;51.416;5.442;2023-05-07T01:27:53;20.95;;;11.20;;
73515;SDS011;61763;51.416;5.442;2023-05-07T01:30:19;19.02;;;12.10;;
73515;SDS011;61763;51.416;5.442;2023-05-07T01:32:56;19.55;;;12.10;;
73515;SDS011;61763;51.416;5.442;2023-05-07T01:35:30;21.00;;;14.80;;
73515;SDS011;61763;51.416;5.442;2023-05-07T01:38:00;19.67;;;13.98;;
73515;SDS011;61763;51.416;5.442;2023-05-07T01:40:25;23.35;;;14.82;;
73515;SDS011;61763;51.416;5.442;2023-05-07T01:42:52;20.60;;;12.90;;
73515;SDS011;61763;51.416;5.442;2023-05-07T01:45:19;22.00;;;15.15;;
73515;SDS011;61763;51.416;5.442;2023-05-07T01:47:45;20.17;;;13.57;;
73515;SDS011;61763;51.416;5.442;2023-05-07T01:50:10;24.98;;;15.00;;
73515;SDS011;61763;51.416;5.442;2023-05-07T01:52:37;25.00;;;14.88;;
73515;SDS011;61763;51.416;5.442;2023-05-07T01:55:03;25.50;;;14.55;;
73515;SDS011;61763;51.416;5.442;2023-05-07T01:57:30;25.60;;;17.17;;
73515;SDS011;61763;51.416;5.442;2023-05-07T01:59:55;26.30;;;15.25;;
73515;SDS011;61763;51.416;5.442;2023-05-07T02:02:21;26.02;;;14.52;;
73515;SDS011;61763;51.416;5.442;2023-05-07T02:04:46;24.27;;;14.77;;
73515;SDS011;61763;51.416;5.442;2023-05-07T02:07:11;27.02;;;17.02;;
73515;SDS011;61763;51.416;5.442;2023-05-07T02:09:38;24.67;;;16.50;;
73515;SDS011;61763;51.416;5.442;2023-05-07T02:12:03;29.70;;;17.55;;
73515;SDS011;61763;51.416;5.442;2023-05-07T02:14:29;25.38;;;18.88;;
73515;SDS011;61763;51.416;5.442;2023-05-07T02:16:54;29.20;;;18.80;;
73515;SDS011;61763;51.416;5.442;2023-05-07T02:19:20;28.10;;;18.98;;
73515;SDS011;61763;51.416;5.442;2023-05-07T02:21:46;27.60;;;17.20;;
73515;SDS011;61763;51.416;5.442;2023-05-07T02:24:13;28.25;;;15.60;;
73515;SDS011;61763;51.416;5.442;2023-05-07T02:26:39;27.83;;;18.38;;
73515;SDS011;61763;51.416;5.442;2023-05-07T02:29:06;30.38;;;19.90;;
73515;SDS011;61763;51.416;5.442;2023-05-07T02:31:31;30.98;;;19.52;;
73515;SDS011;61763;51.416;5.442;2023-05-07T02:36:24;24.03;;;15.67;;
73515;SDS011;61763;51.416;5.442;2023-05-07T02:38:49;32.50;;;20.23;;
73515;SDS011;61763;51.416;5.442;2023-05-07T02:41:14;29.27;;;17.73;;
73515;SDS011;61763;51.416;5.442;2023-05-07T02:43:40;31.20;;;16.92;;
73515;SDS011;61763;51.416;5.442;2023-05-07T02:46:06;30.30;;;19.35;;
73515;SDS011;61763;51.416;5.442;2023-05-07T02:48:33;30.30;;;19.40;;
73515;SDS011;61763;51.416;5.442;2023-05-07T02:50:59;30.80;;;17.17;;
73515;SDS011;61763;51.416;5.442;2023-05-07T02:53:25;24.38;;;15.13;;
73515;SDS011;61763;51.416;5.442;2023-05-07T02:55:55;27.52;;;16.67;;
73515;SDS011;61763;51.416;5.442;2023-05-07T02:58:21;31.75;;;21.33;;
73515;SDS011;61763;51.416;5.442;2023-05-07T03:00:47;29.48;;;16.65;;
73515;SDS011;61763;51.416;5.442;2023-05-07T03:03:12;28.55;;;18.30;;
73515;SDS011;61763;51.416;5.442;2023-05-07T03:05:38;32.92;;;18.10;;
73515;SDS011;61763;51.416;5.442;2023-05-07T03:08:03;28.23;;;17.80;;
73515;SDS011;61763;51.416;5.442;2023-05-07T03:10:29;32.63;;;19.92;;
73515;SDS011;61763;51.416;5.442;2023-05-07T03:12:55;28.85;;;16.95;;
73515;SDS011;61763;51.416;5.442;2023-05-07T03:15:20;32.63;;;18.33;;
73515;SDS011;61763;51.416;5.442;2023-05-07T03:17:46;32.80;;;20.00;;
73515;SDS011;61763;51.416;5.442;2023-05-07T03:20:12;33.30;;;21.02;;
73515;SDS011;61763;51.416;5.442;2023-05-07T03:22:38;30.25;;;19.48;;
73515;SDS011;61763;51.416;5.442;2023-05-07T03:25:03;30.60;;;17.95;;
73515;SDS011;61763;51.416;5.442;2023-05-07T03:27:29;32.38;;;20.58;;
73515;SDS011;61763;51.416;5.442;2023-05-07T03:29:55;35.58;;;19.75;;
73515;SDS011;61763;51.416;5.442;2023-05-07T03:32:20;32.83;;;20.15;;
73515;SDS011;61763;51.416;5.442;2023-05-07T03:34:47;34.58;;;17.60;;
73515;SDS011;61763;51.416;5.442;2023-05-07T03:37:12;31.90;;;20.73;;
73515;SDS011;61763;51.416;5.442;2023-05-07T03:39:37;33.67;;;20.98;;
73515;SDS011;61763;51.416;5.442;2023-05-07T03:42:03;34.20;;;20.85;;
73515;SDS011;61763;51.416;5.442;2023-05-07T03:44:28;31.88;;;18.33;;
73515;SDS011;61763;51.416;5.442;2023-05-07T03:46:54;29.30;;;17.95;;
73515;SDS011;61763;51.416;5.442;2023-05-07T03:49:20;29.42;;;17.45;;
73515;SDS011;61763;51.416;5.442;2023-05-07T03:51:46;32.67;;;19.40;;
73515;SDS011;61763;51.416;5.442;2023-05-07T03:54:11;32.30;;;19.80;;
73515;SDS011;61763;51.416;5.442;2023-05-07T03:56:36;36.25;;;22.10;;
73515;SDS011;61763;51.416;5.442;2023-05-07T03:59:02;35.33;;;21.77;;
73515;SDS011;61763;51.416;5.442;2023-05-07T04:01:27;30.00;;;20.80;;
73515;SDS011;61763;51.416;5.442;2023-05-07T04:03:53;34.00;;;22.30;;
73515;SDS011;61763;51.416;5.442;2023-05-07T04:06:18;33.67;;;19.00;;
73515;SDS011;61763;51.416;5.442;2023-05-07T04:08:43;31.42;;;21.45;;
73515;SDS011;61763;51.416;5.442;2023-05-07T04:11:09;34.75;;;21.15;;
73515;SDS011;61763;51.416;5.442;2023-05-07T04:13:34;35.50;;;20.77;;
73515;SDS011;61763;51.416;5.442;2023-05-07T04:16:01;37.00;;;21.75;;
73515;SDS011;61763;51.416;5.442;2023-05-07T04:20:52;32.95;;;18.13;;
73515;SDS011;61763;51.416;5.442;2023-05-07T04:23:18;36.90;;;20.95;;
73515;SDS011;61763;51.416;5.442;2023-05-07T04:25:43;35.88;;;20.38;;
73515;SDS011;61763;51.416;5.442;2023-05-07T04:28:08;38.13;;;22.48;;
73515;SDS011;61763;51.416;5.442;2023-05-07T04:30:34;38.58;;;20.38;;
73515;SDS011;61763;51.416;5.442;2023-05-07T04:32:59;33.28;;;19.52;;
73515;SDS011;61763;51.416;5.442;2023-05-07T04:35:25;35.15;;;20.83;;
73515;SDS011;61763;51.416;5.442;2023-05-07T04:37:50;39.53;;;22.88;;
73515;SDS011;61763;51.416;5.442;2023-05-07T04:40:15;35.65;;;21.58;;
73515;SDS011;61763;51.416;5.442;2023-05-07T04:42:41;34.17;;;19.42;;
73515;SDS011;61763;51.416;5.442;2023-05-07T04:45:06;36.70;;;23.65;;
73515;SDS011;61763;51.416;5.442;2023-05-07T04:47:33;31.85;;;19.20;;
73515;SDS011;61763;51.416;5.442;2023-05-07T04:49:59;31.52;;;18.75;;
73515;SDS011;61763;51.416;5.442;2023-05-07T04:52:24;32.90;;;19.00;;
73515;SDS011;61763;51.416;5.442;2023-05-07T04:54:50;28.13;;;17.83;;
73515;SDS011;61763;51.416;5.442;2023-05-07T04:57:15;32.22;;;18.00;;
73515;SDS011;61763;51.416;5.442;2023-05-07T04:59:42;34.55;;;22.63;;
73515;SDS011;61763;51.416;5.442;2023-05-07T05:02:08;28.83;;;19.60;;
73515;SDS011;61763;51.416;5.442;2023-05-07T05:04:34;31.08;;;19.92;;
73515;SDS011;61763;51.416;5.442;2023-05-07T05:07:00;34.97;;;21.67;;
73515;SDS011;61763;51.416;5.442;2023-05-07T05:09:25;34.13;;;21.90;;
73515;SDS011;61763;51.416;5.442;2023-05-07T05:11:50;31.70;;;20.97;;
73515;SDS011;61763;51.416;5.442;2023-05-07T05:14:16;36.03;;;21.95;;
73515;SDS011;61763;51.416;5.442;2023-05-07T05:16:42;32.42;;;21.88;;
73515;SDS011;61763;51.416;5.442;2023-05-07T05:19:08;29.50;;;18.02;;
73515;SDS011;61763;51.416;5.442;2023-05-07T05:21:33;32.05;;;19.23;;
73515;SDS011;61763;51.416;5.442;2023-05-07T05:23:58;30.70;;;18.50;;
73515;SDS011;61763;51.416;5.442;2023-05-07T05:26:24;30.10;;;20.48;;
73515;SDS011;61763;51.416;5.442;2023-05-07T05:28:50;29.05;;;18.00;;
73515;SDS011;61763;51.416;5.442;2023-05-07T05:31:16;30.70;;;18.67;;
73515;SDS011;61763;51.416;5.442;2023-05-07T05:33:41;25.85;;;15.95;;
73515;SDS011;61763;51.416;5.442;2023-05-07T05:36:09;28.63;;;18.85;;
73515;SDS011;61763;51.416;5.442;2023-05-07T05:38:35;28.40;;;19.23;;
73515;SDS011;61763;51.416;5.442;2023-05-07T05:41:02;27.88;;;15.57;;
73515;SDS011;61763;51.416;5.442;2023-05-07T05:43:27;28.52;;;17.88;;
73515;SDS011;61763;51.416;5.442;2023-05-07T05:45:53;25.40;;;18.10;;
73515;SDS011;61763;51.416;5.442;2023-05-07T05:48:20;28.33;;;17.17;;
73515;SDS011;61763;51.416;5.442;2023-05-07T05:50:45;30.00;;;19.10;;
73515;SDS011;61763;51.416;5.442;2023-05-07T05:53:10;27.27;;;17.02;;
73515;SDS011;61763;51.416;5.442;2023-05-07T05:55:36;23.55;;;15.57;;
73515;SDS011;61763;51.416;5.442;2023-05-07T05:58:01;21.88;;;15.27;;
73515;SDS011;61763;51.416;5.442;2023-05-07T06:00:27;24.90;;;15.70;;
73515;SDS011;61763;51.416;5.442;2023-05-07T06:02:52;25.85;;;18.83;;
73515;SDS011;61763;51.416;5.442;2023-05-07T06:05:18;24.20;;;15.00;;
73515;SDS011;61763;51.416;5.442;2023-05-07T06:07:43;24.52;;;16.92;;
73515;SDS011;61763;51.416;5.442;2023-05-07T06:10:09;23.35;;;16.35;;
73515;SDS011;61763;51.416;5.442;2023-05-07T06:12:34;22.38;;;15.18;;
73515;SDS011;61763;51.416;5.442;2023-05-07T06:14:59;21.77;;;15.02;;
73515;SDS011;61763;51.416;5.442;2023-05-07T06:17:25;21.00;;;14.23;;
73515;SDS011;61763;51.416;5.442;2023-05-07T06:19:50;20.08;;;15.00;;
73515;SDS011;61763;51.416;5.442;2023-05-07T06:22:17;20.27;;;13.23;;
73515;SDS011;61763;51.416;5.442;2023-05-07T06:24:42;18.63;;;12.60;;
73515;SDS011;61763;51.416;5.442;2023-05-07T06:27:08;19.58;;;14.55;;
73515;SDS011;61763;51.416;5.442;2023-05-07T06:29:33;21.92;;;13.38;;
73515;SDS011;61763;51.416;5.442;2023-05-07T06:32:33;19.88;;;13.70;;
73515;SDS011;61763;51.416;5.442;2023-05-07T06:34:51;16.13;;;11.27;;
73515;SDS011;61763;51.416;5.442;2023-05-07T06:37:17;21.75;;;14.77;;
73515;SDS011;61763;51.416;5.442;2023-05-07T06:39:42;16.40;;;11.82;;
73515;SDS011;61763;51.416;5.442;2023-05-07T06:42:07;20.63;;;15.43;;
73515;SDS011;61763;51.416;5.442;2023-05-07T06:44:33;21.23;;;13.43;;
73515;SDS011;61763;51.416;5.442;2023-05-07T06:46:58;20.38;;;13.45;;
73515;SDS011;61763;51.416;5.442;2023-05-07T06:49:23;19.88;;;12.13;;
73515;SDS011;61763;51.416;5.442;2023-05-07T06:51:49;18.67;;;13.30;;
73515;SDS011;61763;51.416;5.442;2023-05-07T06:54:14;17.08;;;12.68;;
73515;SDS011;61763;51.416;5.442;2023-05-07T06:56:40;15.85;;;10.48;;
73515;SDS011;61763;51.416;5.442;2023-05-07T06:59:05;16.45;;;12.30;;
73515;SDS011;61763;51.416;5.442;2023-05-07T07:01:31;19.58;;;13.05;;
73515;SDS011;61763;51.416;5.442;2023-05-07T07:03:57;16.50;;;11.50;;
73515;SDS011;61763;51.416;5.442;2023-05-07T07:06:22;17.05;;;10.75;;
73515;SDS011;61763;51.416;5.442;2023-05-07T07:08:47;16.02;;;12.75;;
73515;SDS011;61763;51.416;5.442;2023-05-07T07:11:13;18.75;;;13.65;;
73515;SDS011;61763;51.416;5.442;2023-05-07T07:13:38;17.17;;;10.75;;
73515;SDS011;61763;51.416;5.442;2023-05-07T07:16:05;17.05;;;10.55;;
73515;SDS011;61763;51.416;5.442;2023-05-07T07:18:31;15.43;;;10.65;;
73515;SDS011;61763;51.416;5.442;2023-05-07T07:20:57;16.77;;;12.93;;
73515;SDS011;61763;51.416;5.442;2023-05-07T07:23:23;15.65;;;11.80;;
73515;SDS011;61763;51.416;5.442;2023-05-07T07:25:48;15.60;;;10.77;;
73515;SDS011;61763;51.416;5.442;2023-05-07T07:28:15;18.10;;;10.57;;
73515;SDS011;61763;51.416;5.442;2023-05-07T07:30:40;16.80;;;9.02;;
73515;SDS011;61763;51.416;5.442;2023-05-07T07:33:05;18.85;;;13.68;;
73515;SDS011;61763;51.416;5.442;2023-05-07T07:35:31;19.45;;;11.35;;
73515;SDS011;61763;51.416;5.442;2023-05-07T07:37:57;16.75;;;12.77;;
73515;SDS011;61763;51.416;5.442;2023-05-07T07:40:23;16.27;;;12.32;;
73515;SDS011;61763;51.416;5.442;2023-05-07T07:42:48;19.08;;;13.05;;
73515;SDS011;61763;51.416;5.442;2023-05-07T07:45:14;17.05;;;11.60;;
73515;SDS011;61763;51.416;5.442;2023-05-07T07:47:39;18.25;;;12.50;;
73515;SDS011;61763;51.416;5.442;2023-05-07T07:50:05;13.95;;;9.98;;
73515;SDS011;61763;51.416;5.442;2023-05-07T07:52:32;17.20;;;12.73;;
73515;SDS011;61763;51.416;5.442;2023-05-07T07:54:57;15.77;;;10.82;;
73515;SDS011;61763;51.416;5.442;2023-05-07T07:57:23;15.35;;;10.40;;
73515;SDS011;61763;51.416;5.442;2023-05-07T07:59:48;16.65;;;13.45;;
73515;SDS011;61763;51.416;5.442;2023-05-07T08:02:15;15.50;;;10.48;;
73515;SDS011;61763;51.416;5.442;2023-05-07T08:04:40;15.35;;;10.80;;
73515;SDS011;61763;51.416;5.442;2023-05-07T08:07:08;16.00;;;12.02;;
73515;SDS011;61763;51.416;5.442;2023-05-07T08:09:33;14.70;;;12.38;;
73515;SDS011;61763;51.416;5.442;2023-05-07T08:11:59;15.00;;;11.45;;
73515;SDS011;61763;51.416;5.442;2023-05-07T08:14:24;15.55;;;9.13;;
73515;SDS011;61763;51.416;5.442;2023-05-07T08:16:49;13.30;;;8.88;;
73515;SDS011;61763;51.416;5.442;2023-05-07T08:19:15;13.50;;;9.32;;
73515;SDS011;61763;51.416;5.442;2023-05-07T08:21:40;16.90;;;10.63;;
73515;SDS011;61763;51.416;5.442;2023-05-07T08:24:06;11.73;;;8.27;;
73515;SDS011;61763;51.416;5.442;2023-05-07T08:26:31;13.38;;;8.93;;
73515;SDS011;61763;51.416;5.442;2023-05-07T08:28:57;11.55;;;8.38;;
73515;SDS011;61763;51.416;5.442;2023-05-07T08:31:22;13.60;;;8.90;;
73515;SDS011;61763;51.416;5.442;2023-05-07T08:33:47;14.68;;;8.40;;
73515;SDS011;61763;51.416;5.442;2023-05-07T08:36:15;10.60;;;7.75;;
73515;SDS011;61763;51.416;5.442;2023-05-07T08:38:40;14.10;;;9.18;;
73515;SDS011;61763;51.416;5.442;2023-05-07T08:41:09;12.82;;;8.88;;
73515;SDS011;61763;51.416;5.442;2023-05-07T08:43:35;12.45;;;10.57;;
73515;SDS011;61763;51.416;5.442;2023-05-07T08:46:02;13.18;;;10.65;;
73515;SDS011;61763;51.416;5.442;2023-05-07T08:50:57;11.40;;;7.72;;
73515;SDS011;61763;51.416;5.442;2023-05-07T08:53:23;12.82;;;9.43;;
73515;SDS011;61763;51.416;5.442;2023-05-07T08:55:49;11.25;;;7.55;;
73515;SDS011;61763;51.416;5.442;2023-05-07T08:58:15;14.50;;;11.48;;
73515;SDS011;61763;51.416;5.442;2023-05-07T09:00:40;12.77;;;9.13;;
73515;SDS011;61763;51.416;5.442;2023-05-07T09:03:07;12.60;;;9.50;;
73515;SDS011;61763;51.416;5.442;2023-05-07T09:05:32;12.85;;;10.43;;
73515;SDS011;61763;51.416;5.442;2023-05-07T09:08:04;13.43;;;10.50;;
73515;SDS011;61763;51.416;5.442;2023-05-07T09:10:32;11.93;;;8.55;;
73515;SDS011;61763;51.416;5.442;2023-05-07T09:12:58;12.27;;;9.65;;
73515;SDS011;61763;51.416;5.442;2023-05-07T09:15:24;12.30;;;9.75;;
73515;SDS011;61763;51.416;5.442;2023-05-07T09:17:50;10.65;;;8.25;;
73515;SDS011;61763;51.416;5.442;2023-05-07T09:20:15;10.68;;;7.97;;
73515;SDS011;61763;51.416;5.442;2023-05-07T09:22:41;10.70;;;8.05;;
73515;SDS011;61763;51.416;5.442;2023-05-07T09:25:07;11.40;;;7.75;;
73515;SDS011;61763;51.416;5.442;2023-05-07T09:27:34;10.60;;;9.50;;
73515;SDS011;61763;51.416;5.442;2023-05-07T09:30:02;13.05;;;9.80;;
73515;SDS011;61763;51.416;5.442;2023-05-07T09:32:28;9.55;;;6.65;;
73515;SDS011;61763;51.416;5.442;2023-05-07T09:37:20;11.57;;;9.90;;
73515;SDS011;61763;51.416;5.442;2023-05-07T09:39:47;9.52;;;6.80;;
73515;SDS011;61763;51.416;5.442;2023-05-07T09:42:14;8.52;;;6.90;;
73515;SDS011;61763;51.416;5.442;2023-05-07T09:44:41;9.88;;;6.60;;
73515;SDS011;61763;51.416;5.442;2023-05-07T09:47:08;10.75;;;7.88;;
73515;SDS011;61763;51.416;5.442;2023-05-07T09:49:37;9.98;;;6.47;;
73515;SDS011;61763;51.416;5.442;2023-05-07T09:52:05;9.13;;;7.80;;
73515;SDS011;61763;51.416;5.442;2023-05-07T09:54:33;12.35;;;9.30;;
73515;SDS011;61763;51.416;5.442;2023-05-07T09:57:03;11.57;;;9.57;;
73515;SDS011;61763;51.416;5.442;2023-05-07T09:59:30;10.57;;;8.57;;
73515;SDS011;61763;51.416;5.442;2023-05-07T10:01:57;9.10;;;8.20;;
73515;SDS011;61763;51.416;5.442;2023-05-07T10:04:24;9.38;;;5.47;;
73515;SDS011;61763;51.416;5.442;2023-05-07T10:06:51;10.65;;;8.13;;
73515;SDS011;61763;51.416;5.442;2023-05-07T10:09:16;9.90;;;7.80;;
73515;SDS011;61763;51.416;5.442;2023-05-07T10:11:43;7.40;;;5.55;;
73515;SDS011;61763;51.416;5.442;2023-05-07T10:14:08;12.43;;;9.40;;
73515;SDS011;61763;51.416;5.442;2023-05-07T10:16:35;9.98;;;6.22;;
73515;SDS011;61763;51.416;5.442;2023-05-07T10:19:05;9.02;;;7.10;;
73515;SDS011;61763;51.416;5.442;2023-05-07T10:21:38;10.35;;;7.35;;
73515;SDS011;61763;51.416;5.442;2023-05-07T10:24:12;12.07;;;6.55;;
73515;SDS011;61763;51.416;5.442;2023-05-07T10:26:45;8.82;;;7.93;;
73515;SDS011;61763;51.416;5.442;2023-05-07T10:29:16;7.93;;;7.13;;
73515;SDS011;61763;51.416;5.442;2023-05-07T10:34:21;9.55;;;8.60;;
73515;SDS011;61763;51.416;5.442;2023-05-07T10:36:51;10.40;;;7.45;;
73515;SDS011;61763;51.416;5.442;2023-05-07T10:39:18;9.20;;;6.45;;
73515;SDS011;61763;51.416;5.442;2023-05-07T10:41:45;9.65;;;8.18;;
73515;SDS011;61763;51.416;5.442;2023-05-07T10:44:10;8.80;;;6.18;;
73515;SDS011;61763;51.416;5.442;2023-05-07T10:46:36;9.73;;;8.73;;
73515;SDS011;61763;51.416;5.442;2023-05-07T10:51:28;10.32;;;8.70;;
73515;SDS011;61763;51.416;5.442;2023-05-07T10:56:42;11.00;;;8.35;;
73515;SDS011;61763;51.416;5.442;2023-05-07T11:04:22;10.73;;;8.07;;
73515;SDS011;61763;51.416;5.442;2023-05-07T11:15:02;8.65;;;5.93;;
73515;SDS011;61763;51.416;5.442;2023-05-07T11:17:28;9.57;;;7.18;;
73515;SDS011;61763;51.416;5.442;2023-05-07T11:19:56;9.52;;;8.52;;
73515;SDS011;61763;51.416;5.442;2023-05-07T11:25:00;10.32;;;8.60;;
73515;SDS011;61763;51.416;5.442;2023-05-07T11:27:29;10.93;;;8.77;;
73515;SDS011;61763;51.416;5.442;2023-05-07T11:29:55;9.38;;;6.65;;
73515;SDS011;61763;51.416;5.442;2023-05-07T11:32:30;11.00;;;7.40;;
73515;SDS011;61763;51.416;5.442;2023-05-07T11:34:57;7.95;;;5.88;;
73515;SDS011;61763;51.416;5.442;2023-05-07T11:37:24;11.10;;;8.43;;
73515;SDS011;61763;51.416;5.442;2023-05-07T11:39:52;8.18;;;7.07;;
73515;SDS011;61763;51.416;5.442;2023-05-07T11:42:29;11.30;;;8.10;;
73515;SDS011;61763;51.416;5.442;2023-05-07T11:44:56;10.30;;;7.68;;
73515;SDS011;61763;51.416;5.442;2023-05-07T11:47:22;10.40;;;9.38;;
73515;SDS011;61763;51.416;5.442;2023-05-07T11:49:49;9.93;;;7.07;;
73515;SDS011;61763;51.416;5.442;2023-05-07T11:52:17;9.07;;;6.15;;
73515;SDS011;61763;51.416;5.442;2023-05-07T11:54:53;8.30;;;5.10;;
73515;SDS011;61763;51.416;5.442;2023-05-07T11:57:20;10.30;;;6.03;;
73515;SDS011;61763;51.416;5.442;2023-05-07T11:59:46;10.13;;;9.10;;
73515;SDS011;61763;51.416;5.442;2023-05-07T12:02:16;8.85;;;6.22;;
73515;SDS011;61763;51.416;5.442;2023-05-07T12:04:42;9.20;;;6.18;;
73515;SDS011;61763;51.416;5.442;2023-05-07T12:07:11;9.30;;;6.35;;
73515;SDS011;61763;51.416;5.442;2023-05-07T12:09:40;9.90;;;6.72;;
73515;SDS011;61763;51.416;5.442;2023-05-07T12:12:07;9.10;;;8.20;;
73515;SDS011;61763;51.416;5.442;2023-05-07T12:14:32;9.30;;;5.90;;
73515;SDS011;61763;51.416;5.442;2023-05-07T12:17:00;8.80;;;5.88;;
73515;SDS011;61763;51.416;5.442;2023-05-07T12:19:30;10.15;;;7.57;;
73515;SDS011;61763;51.416;5.442;2023-05-07T12:21:55;9.98;;;5.65;;
73515;SDS011;61763;51.416;5.442;2023-05-07T12:24:22;15.90;;;6.38;;
73515;SDS011;61763;51.416;5.442;2023-05-07T12:26:48;18.35;;;4.68;;
73515;SDS011;61763;51.416;5.442;2023-05-07T12:29:13;15.02;;;4.43;;
73515;SDS011;61763;51.416;5.442;2023-05-07T12:31:42;13.50;;;3.90;;
73515;SDS011;61763;51.416;5.442;2023-05-07T12:34:08;9.23;;;3.13;;
73515;SDS011;61763;51.416;5.442;2023-05-07T12:36:39;9.45;;;3.28;;
73515;SDS011;61763;51.416;5.442;2023-05-07T12:39:08;18.63;;;3.83;;
73515;SDS011;61763;51.416;5.442;2023-05-07T12:41:55;18.08;;;3.10;;
73515;SDS011;61763;51.416;5.442;2023-05-07T12:44:23;11.07;;;5.05;;
73515;SDS011;61763;51.416;5.442;2023-05-07T12:46:53;7.30;;;2.63;;
73515;SDS011;61763;51.416;5.442;2023-05-07T12:49:19;5.50;;;4.45;;
73515;SDS011;61763;51.416;5.442;2023-05-07T12:51:46;8.70;;;4.55;;
73515;SDS011;61763;51.416;5.442;2023-05-07T12:54:13;6.75;;;3.55;;
73515;SDS011;61763;51.416;5.442;2023-05-07T12:59:06;7.93;;;4.20;;
73515;SDS011;61763;51.416;5.442;2023-05-07T13:01:31;6.15;;;4.13;;
73515;SDS011;61763;51.416;5.442;2023-05-07T13:04:02;6.35;;;5.55;;
73515;SDS011;61763;51.416;5.442;2023-05-07T13:06:29;7.68;;;3.60;;
73515;SDS011;61763;51.416;5.442;2023-05-07T13:11:21;5.32;;;4.18;;
73515;SDS011;61763;51.416;5.442;2023-05-07T13:13:46;7.43;;;3.67;;
73515;SDS011;61763;51.416;5.442;2023-05-07T13:16:11;8.40;;;4.70;;
73515;SDS011;61763;51.416;5.442;2023-05-07T13:18:38;4.78;;;3.78;;
73515;SDS011;61763;51.416;5.442;2023-05-07T13:23:29;4.27;;;1.43;;
73515;SDS011;61763;51.416;5.442;2023-05-07T13:25:55;7.65;;;3.25;;
73515;SDS011;61763;51.416;5.442;2023-05-07T13:28:21;3.47;;;1.40;;
73515;SDS011;61763;51.416;5.442;2023-05-07T13:30:47;5.00;;;1.50;;
73515;SDS011;61763;51.416;5.442;2023-05-07T13:33:12;3.95;;;1.80;;
73515;SDS011;61763;51.416;5.442;2023-05-07T13:35:38;6.38;;;1.30;;
73515;SDS011;61763;51.416;5.442;2023-05-07T13:38:04;5.05;;;2.10;;
73515;SDS011;61763;51.416;5.442;2023-05-07T13:40:29;3.88;;;0.80;;
73515;SDS011;61763;51.416;5.442;2023-05-07T13:42:57;4.22;;;1.60;;
73515;SDS011;61763;51.416;5.442;2023-05-07T13:45:23;2.83;;;1.60;;
73515;SDS011;61763;51.416;5.442;2023-05-07T13:47:50;2.03;;;0.70;;
73515;SDS011;61763;51.416;5.442;2023-05-07T13:50:16;4.10;;;1.42;;
73515;SDS011;61763;51.416;5.442;2023-05-07T13:52:42;2.63;;;1.73;;
73515;SDS011;61763;51.416;5.442;2023-05-07T13:55:08;4.28;;;0.60;;
73515;SDS011;61763;51.416;5.442;2023-05-07T13:57:35;2.92;;;2.03;;
73515;SDS011;61763;51.416;5.442;2023-05-07T14:00:01;3.25;;;1.58;;
73515;SDS011;61763;51.416;5.442;2023-05-07T14:02:27;3.72;;;2.22;;
73515;SDS011;61763;51.416;5.442;2023-05-07T14:04:52;3.80;;;1.85;;
73515;SDS011;61763;51.416;5.442;2023-05-07T14:07:17;4.53;;;2.20;;
73515;SDS011;61763;51.416;5.442;2023-05-07T14:09:43;4.53;;;3.00;;
73515;SDS011;61763;51.416;5.442;2023-05-07T14:14:35;4.23;;;2.07;;
73515;SDS011;61763;51.416;5.442;2023-05-07T14:17:00;6.20;;;3.00;;
73515;SDS011;61763;51.416;5.442;2023-05-07T14:19:26;6.03;;;2.90;;
73515;SDS011;61763;51.416;5.442;2023-05-07T14:21:51;5.80;;;2.92;;
73515;SDS011;61763;51.416;5.442;2023-05-07T14:24:17;7.03;;;3.95;;
73515;SDS011;61763;51.416;5.442;2023-05-07T14:26:42;5.57;;;3.17;;
73515;SDS011;61763;51.416;5.442;2023-05-07T14:29:07;5.40;;;4.90;;
73515;SDS011;61763;51.416;5.442;2023-05-07T14:31:33;9.52;;;6.68;;
73515;SDS011;61763;51.416;5.442;2023-05-07T14:33:58;6.20;;;4.85;;
73515;SDS011;61763;51.416;5.442;2023-05-07T14:36:24;7.95;;;5.57;;
73515;SDS011;61763;51.416;5.442;2023-05-07T14:38:51;8.60;;;6.85;;
73515;SDS011;61763;51.416;5.442;2023-05-07T14:41:18;8.85;;;5.88;;
73515;SDS011;61763;51.416;5.442;2023-05-07T14:43:44;8.43;;;5.45;;
73515;SDS011;61763;51.416;5.442;2023-05-07T14:46:14;5.57;;;4.50;;
73515;SDS011;61763;51.416;5.442;2023-05-07T14:48:41;6.22;;;3.65;;
73515;SDS011;61763;51.416;5.442;2023-05-07T14:51:07;6.65;;;3.90;;
73515;SDS011;61763;51.416;5.442;2023-05-07T14:53:32;8.35;;;4.20;;
73515;SDS011;61763;51.416;5.442;2023-05-07T14:55:58;7.30;;;4.90;;
73515;SDS011;61763;51.416;5.442;2023-05-07T14:58:24;9.77;;;4.65;;
73515;SDS011;61763;51.416;5.442;2023-05-07T15:00:49;6.47;;;3.83;;
73515;SDS011;61763;51.416;5.442;2023-05-07T15:03:15;7.13;;;5.95;;
73515;SDS011;61763;51.416;5.442;2023-05-07T15:05:40;4.03;;;2.72;;
73515;SDS011;61763;51.416;5.442;2023-05-07T15:08:06;5.13;;;2.00;;
73515;SDS011;61763;51.416;5.442;2023-05-07T15:10:34;5.07;;;2.55;;